Time;durP1;ratioP1;P1;durP2;ratioP2;P2;SDS_P1;SDS_P2;PMS_P1;PMS_P2;Temp;Humidity;BMP_temperature;BMP_pressure;BME280_temperature;BME280_humidity;BME280_pressure;Samples;Min_cycle;Max_cycle;Signal;HPM_P1;HPM_P2
2022/03/02 00:00:27;;;;;;;20.53;11.80;;;3.10;32.70;;;;;;4939407;28;20480;-83
2022/03/02 00:02:55;;;;;;;20.43;11.13;;;3.10;33.00;;;;;;4938214;29;20457;-84
2022/03/02 00:05:24;;;;;;;19.50;11.30;;;3.10;33.30;;;;;;4954702;28;20467;-84
2022/03/02 00:07:51;;;;;;;21.83;11.80;;;3.00;33.40;;;;;;4957267;28;20460;-83
2022/03/02 00:10:18;;;;;;;21.43;11.33;;;2.90;34.30;;;;;;4954659;28;20479;-83
2022/03/02 00:12:44;;;;;;;22.33;11.40;;;2.70;35.70;;;;;;4954994;28;20460;-84
2022/03/02 00:15:11;;;;;;;25.17;12.40;;;2.60;36.90;;;;;;4949988;28;20486;-83
2022/03/02 00:17:38;;;;;;;18.37;12.07;;;2.50;37.80;;;;;;4937678;29;20464;-83
2022/03/02 00:20:08;;;;;;;20.93;11.13;;;2.30;38.20;;;;;;4941304;29;20834;-84
2022/03/02 00:22:34;;;;;;;21.27;12.43;;;2.20;38.10;;;;;;4956472;28;20460;-83
2022/03/02 00:25:01;;;;;;;22.87;12.30;;;2.10;38.00;;;;;;4955868;28;20479;-83
2022/03/02 00:27:29;;;;;;;17.27;10.47;;;2.10;38.00;;;;;;4956113;29;20463;-84
2022/03/02 00:29:56;;;;;;;17.40;10.83;;;2.00;37.90;;;;;;4955509;28;20470;-83
2022/03/02 00:32:23;;;;;;;22.03;12.13;;;2.00;37.90;;;;;;4956390;29;20844;-84
2022/03/02 00:34:50;;;;;;;17.42;10.60;;;2.00;36.80;;;;;;4955416;28;20460;-83
2022/03/02 00:37:18;;;;;;;20.93;12.77;;;1.80;40.20;;;;;;4955921;29;20231;-83
2022/03/02 00:39:45;;;;;;;31.23;14.13;;;1.70;43.70;;;;;;4954700;29;20452;-83
2022/03/02 00:42:12;;;;;;;17.63;10.93;;;1.40;46.80;;;;;;4953958;29;20464;-83
2022/03/02 00:44:39;;;;;;;17.00;11.63;;;1.20;45.90;;;;;;4953518;29;20459;-82
2022/03/02 00:47:07;;;;;;;23.93;12.43;;;1.30;43.60;;;;;;4954544;29;20456;-83
2022/03/02 00:49:34;;;;;;;23.65;11.57;;;1.40;42.40;;;;;;4956799;28;20456;-83
2022/03/02 00:52:02;;;;;;;21.03;11.07;;;1.40;41.40;;;;;;4957311;29;20236;-84
2022/03/02 00:54:30;;;;;;;21.23;11.87;;;1.30;42.10;;;;;;4954806;28;20456;-83
2022/03/02 00:56:57;;;;;;;18.30;10.70;;;1.20;42.20;;;;;;4954259;29;20871;-81
2022/03/02 00:59:24;;;;;;;15.87;9.80;;;1.20;41.80;;;;;;4953884;29;20462;-83
2022/03/02 01:01:51;;;;;;;18.93;11.47;;;1.20;41.90;;;;;;4954389;29;20452;-83
2022/03/02 01:04:17;;;;;;;18.37;10.07;;;1.30;40.90;;;;;;4954861;29;20456;-83
2022/03/02 01:06:44;;;;;;;17.50;11.10;;;1.40;40.00;;;;;;4953696;29;20487;-83
2022/03/02 01:09:11;;;;;;;18.60;10.90;;;1.40;37.40;;;;;;4953051;29;20459;-83
2022/03/02 01:11:39;;;;;;;20.50;9.73;;;1.50;37.50;;;;;;4954109;29;20201;-84
2022/03/02 01:14:06;;;;;;;24.27;11.33;;;1.50;37.50;;;;;;4955350;28;20459;-83
2022/03/02 01:16:33;;;;;;;16.97;9.53;;;1.50;39.00;;;;;;4955081;28;20487;-83
2022/03/02 01:19:00;;;;;;;18.30;11.03;;;1.60;37.60;;;;;;4955198;29;20491;-83
2022/03/02 01:21:27;;;;;;;18.17;11.83;;;1.60;37.60;;;;;;4955314;28;20459;-83
2022/03/02 01:23:56;;;;;;;17.85;10.23;;;1.60;37.60;;;;;;4955489;29;20456;-83
2022/03/02 01:26:24;;;;;;;19.37;10.30;;;1.50;37.50;;;;;;4953733;28;20642;-83
2022/03/02 01:28:53;;;;;;;17.83;11.77;;;1.40;37.40;;;;;;4952721;28;20971;-83
2022/03/02 01:31:21;;;;;;;15.37;10.40;;;1.50;37.70;;;;;;4956396;28;21108;-82
2022/03/02 01:33:48;;;;;;;19.70;10.63;;;1.40;37.90;;;;;;4956626;29;20945;-83
2022/03/02 01:36:15;;;;;;;15.30;9.83;;;1.40;37.90;;;;;;4956284;28;20830;-82
2022/03/02 01:38:42;;;;;;;23.90;11.07;;;1.20;41.50;;;;;;4955954;29;20471;-83
2022/03/02 01:41:09;;;;;;;20.43;10.80;;;1.00;44.30;;;;;;4956813;28;20464;-83
2022/03/02 01:43:35;;;;;;;23.03;12.70;;;0.80;45.60;;;;;;4956574;28;20466;-82
2022/03/02 01:46:04;;;;;;;16.90;10.43;;;0.70;45.50;;;;;;4957476;28;20471;-81
2022/03/02 01:48:30;;;;;;;22.77;12.33;;;0.60;47.40;;;;;;4957084;29;20889;-82
2022/03/02 01:50:57;;;;;;;18.88;10.55;;;0.40;49.10;;;;;;4956485;28;20467;-83
2022/03/02 01:53:24;;;;;;;17.42;10.98;;;0.10;48.80;;;;;;4956226;29;20218;-82
2022/03/02 01:55:51;;;;;;;21.52;10.48;;;0.10;47.60;;;;;;4955642;29;20227;-83
2022/03/02 01:58:18;;;;;;;28.27;11.90;;;0.00;47.40;;;;;;4956030;28;20199;-82
2022/03/02 02:00:44;;;;;;;14.50;9.40;;;0.30;44.70;;;;;;4956531;29;20197;-83
2022/03/02 02:03:13;;;;;;;17.95;11.27;;;0.30;45.30;;;;;;4956419;29;20193;-83
2022/03/02 02:05:39;;;;;;;18.73;10.60;;;0.30;45.40;;;;;;4956737;28;20220;-82
2022/03/02 02:08:07;;;;;;;17.70;10.60;;;0.30;45.10;;;;;;4956643;28;20197;-81
2022/03/02 02:10:33;;;;;;;18.03;10.90;;;0.30;46.90;;;;;;4956679;29;20200;-82
2022/03/02 02:13:00;;;;;;;18.55;10.50;;;0.20;48.10;;;;;;4956204;28;20456;-83
2022/03/02 02:15:27;;;;;;;19.52;10.60;;;0.00;49.50;;;;;;4957076;28;20231;-83
2022/03/02 02:17:54;;;;;;;20.63;12.15;;;-0.20;53.10;;;;;;4959057;29;20275;-83
2022/03/02 02:20:23;;;;;;;42.08;13.35;;;-0.20;57.90;;;;;;4955666;28;20208;-83
2022/03/02 02:22:51;;;;;;;44.88;16.42;;;-0.20;60.00;;;;;;4956031;28;20283;-81
2022/03/02 02:25:18;;;;;;;27.23;12.50;;;-0.30;62.80;;;;;;4955662;28;20220;-83
2022/03/02 02:27:46;;;;;;;24.65;12.77;;;-0.30;63.90;;;;;;4955538;29;20242;-83
2022/03/02 02:30:16;;;;;;;23.92;12.25;;;-0.40;64.80;;;;;;4956582;28;20251;-82
2022/03/02 02:32:43;;;;;;;21.60;11.13;;;-0.30;65.90;;;;;;4955393;29;20200;-82
2022/03/02 02:35:11;;;;;;;20.03;11.30;;;-0.40;62.30;;;;;;4955499;28;20220;-82
2022/03/02 02:37:39;;;;;;;18.38;11.68;;;-0.40;63.70;;;;;;4955448;29;20487;-82
2022/03/02 02:40:10;;;;;;;18.23;10.80;;;-0.40;62.30;;;;;;4954961;28;20200;-82
2022/03/02 02:42:37;;;;;;;22.52;11.90;;;-0.40;63.60;;;;;;4954286;29;20568;-83
2022/03/02 02:45:04;;;;;;;17.90;10.38;;;-0.50;65.50;;;;;;4955326;28;20223;-82
2022/03/02 02:47:31;;;;;;;20.15;12.70;;;-0.50;65.20;;;;;;4954996;28;20204;-82
2022/03/02 02:49:58;;;;;;;15.82;10.57;;;-0.60;64.30;;;;;;4935953;29;20205;-83
2022/03/02 02:52:25;;;;;;;21.92;11.63;;;-0.50;65.90;;;;;;4940390;29;20654;-82
2022/03/02 02:54:52;;;;;;;18.85;11.98;;;-0.50;69.00;;;;;;4954632;28;20661;-82
2022/03/02 02:57:20;;;;;;;23.60;12.75;;;-0.50;69.90;;;;;;4954975;28;20212;-82
2022/03/02 02:59:46;;;;;;;19.70;12.35;;;-0.50;71.30;;;;;;4954797;29;20207;-82
2022/03/02 03:02:13;;;;;;;21.08;11.90;;;-0.50;71.70;;;;;;4954928;29;20203;-82
2022/03/02 03:04:40;;;;;;;19.10;11.55;;;-0.50;72.80;;;;;;4955571;28;20557;-83
2022/03/02 03:07:07;;;;;;;19.40;12.68;;;-0.40;73.90;;;;;;4954655;28;20204;-79
2022/03/02 03:09:34;;;;;;;19.08;12.00;;;-0.50;72.70;;;;;;4952751;29;20201;-82
2022/03/02 03:12:01;;;;;;;21.45;12.00;;;-0.50;74.40;;;;;;4950890;29;20196;-83
2022/03/02 03:14:29;;;;;;;18.75;11.05;;;-0.50;72.80;;;;;;4955124;29;20204;-83
2022/03/02 03:16:56;;;;;;;25.65;13.45;;;-0.40;74.60;;;;;;4955408;28;20224;-84
2022/03/02 03:19:22;;;;;;;20.70;14.45;;;-0.40;76.80;;;;;;4955651;28;20200;-82
2022/03/02 03:21:49;;;;;;;19.17;14.70;;;-0.40;77.70;;;;;;4954701;28;20207;-83
2022/03/02 03:24:16;;;;;;;19.35;15.20;;;-0.30;79.50;;;;;;4946332;29;20200;-82
2022/03/02 03:26:43;;;;;;;18.40;15.32;;;-0.30;79.70;;;;;;4942690;29;20208;-82
2022/03/02 03:29:09;;;;;;;21.55;13.00;;;-0.30;80.40;;;;;;4954260;28;20231;-82
2022/03/02 03:31:37;;;;;;;19.48;12.48;;;-0.40;77.20;;;;;;4954725;29;20196;-82
2022/03/02 03:34:04;;;;;;;18.85;12.65;;;-0.20;76.10;;;;;;4953267;29;20203;-82
2022/03/02 03:36:31;;;;;;;19.40;15.18;;;-0.30;78.50;;;;;;4954566;28;20224;-82
2022/03/02 03:38:57;;;;;;;20.55;13.60;;;-0.20;79.40;;;;;;4949560;29;20189;-82
2022/03/02 03:41:25;;;;;;;34.90;21.00;;;-0.20;82.70;;;;;;4954465;29;20192;-83
2022/03/02 03:43:51;;;;;;;24.20;17.25;;;-0.20;81.90;;;;;;4954816;28;20239;-83
2022/03/02 03:46:18;;;;;;;20.83;14.10;;;-0.20;84.50;;;;;;4953277;28;20224;-81
2022/03/02 03:48:46;;;;;;;24.63;12.80;;;-0.20;81.70;;;;;;4954619;29;20207;-82
2022/03/02 03:51:13;;;;;;;22.50;15.57;;;-0.10;78.80;;;;;;4955344;29;20228;-82
2022/03/02 03:53:40;;;;;;;16.10;12.52;;;0.00;82.70;;;;;;4952966;28;20455;-82
2022/03/02 03:56:07;;;;;;;20.40;10.93;;;0.10;78.20;;;;;;4994064;23;20221;-81
2022/03/02 03:58:34;;;;;;;21.25;12.05;;;0.20;72.80;;;;;;4998952;28;20191;-81
2022/03/02 04:01:16;;;;;;;16.13;10.63;;;0.20;74.70;;;;;;5001524;28;20207;-81
2022/03/02 04:03:58;;;;;;;23.73;11.98;;;0.30;74.30;;;;;;5001102;28;20202;-81
2022/03/02 04:06:27;;;;;;;23.40;13.02;;;0.40;75.40;;;;;;4988998;28;20274;-81
2022/03/02 04:09:06;;;;;;;16.90;12.55;;;0.50;81.80;;;;;;4980744;28;20665;-81
2022/03/02 04:11:38;;;;;;;23.85;14.80;;;0.50;81.80;;;;;;4980647;28;20286;-81
2022/03/02 04:14:12;;;;;;;20.38;15.57;;;0.60;83.20;;;;;;4981174;28;20224;-81
2022/03/02 04:16:39;;;;;;;22.73;16.65;;;0.60;83.90;;;;;;4980337;28;20212;-81
2022/03/02 04:19:11;;;;;;;20.52;13.60;;;0.70;83.60;;;;;;4980302;28;20198;-80
2022/03/02 04:21:53;;;;;;;25.30;14.30;;;0.70;81.30;;;;;;4981552;28;20218;-81
2022/03/02 04:24:52;;;;;;;20.60;11.53;;;0.70;73.90;;;;;;4979828;28;20483;-82
2022/03/02 04:27:19;;;;;;;21.67;11.95;;;0.80;72.90;;;;;;4979566;28;20475;-81
2022/03/02 04:29:46;;;;;;;18.33;11.97;;;0.80;67.40;;;;;;4980603;28;20206;-82
2022/03/02 04:32:21;;;;;;;19.50;11.40;;;1.00;65.90;;;;;;4980116;28;20451;-82
2022/03/02 04:35:00;;;;;;;19.17;11.23;;;1.00;62.70;;;;;;4981175;28;20458;-82
2022/03/02 04:37:28;;;;;;;17.63;10.60;;;1.00;62.80;;;;;;4979507;28;20855;-82
2022/03/02 04:40:08;;;;;;;18.73;11.70;;;1.00;68.90;;;;;;4975832;28;20627;-81
2022/03/02 04:42:45;;;;;;;24.13;13.80;;;1.00;67.20;;;;;;4981407;28;20482;-82
2022/03/02 04:45:25;;;;;;;22.00;11.95;;;1.10;66.40;;;;;;4979916;28;20463;-81
2022/03/02 04:48:08;;;;;;;19.03;10.37;;;1.20;60.60;;;;;;4968026;28;20221;-82
2022/03/02 04:51:22;;;;;;;;;;;;;;;;;;;;;
2022/03/02 04:54:08;;;;;;;;;;;;;;;;;;;;;
2022/03/02 04:56:37;;;;;;;21.48;10.20;;;1.80;47.40;;;;;;4974266;28;20482;-82
2022/03/02 04:59:04;;;;;;;17.00;10.23;;;1.80;46.20;;;;;;4978240;28;20207;-82
2022/03/02 05:01:31;;;;;;;16.20;10.40;;;2.00;44.30;;;;;;4979098;28;20450;-82
2022/03/02 05:03:58;;;;;;;20.93;10.47;;;2.10;43.40;;;;;;4979960;28;20455;-83
2022/03/02 05:06:24;;;;;;;16.27;9.70;;;2.10;42.60;;;;;;4982593;28;20475;-82
2022/03/02 05:08:52;;;;;;;15.70;9.30;;;2.10;43.00;;;;;;4981777;28;20466;-83
2022/03/02 05:11:19;;;;;;;20.33;9.93;;;2.20;41.30;;;;;;4981488;28;20461;-82
2022/03/02 05:13:46;;;;;;;19.27;9.10;;;2.30;41.10;;;;;;4982207;28;20943;-83
2022/03/02 05:16:13;;;;;;;17.33;10.17;;;2.30;39.30;;;;;;4982173;28;20231;-82
2022/03/02 05:18:44;;;;;;;19.90;10.97;;;2.40;38.30;;;;;;4982554;28;20482;-83
2022/03/02 05:21:11;;;;;;;24.70;9.73;;;2.30;38.20;;;;;;4981611;28;20443;-83
2022/03/02 05:23:38;;;;;;;18.65;9.18;;;2.40;39.00;;;;;;4981129;28;20459;-84
2022/03/02 05:26:06;;;;;;;19.03;10.50;;;2.30;40.70;;;;;;4981219;28;20716;-83
2022/03/02 05:28:33;;;;;;;19.73;10.93;;;2.20;40.40;;;;;;4978470;28;20994;-82
2022/03/02 05:31:00;;;;;;;15.30;9.17;;;2.20;40.50;;;;;;4980609;28;20454;-82
2022/03/02 05:33:27;;;;;;;19.30;10.70;;;2.20;40.20;;;;;;4982030;28;20454;-82
2022/03/02 05:35:53;;;;;;;15.63;10.30;;;2.20;40.60;;;;;;4980976;28;20470;-82
2022/03/02 05:38:21;;;;;;;21.83;12.27;;;2.20;41.60;;;;;;4982908;28;20485;-82
2022/03/02 05:40:48;;;;;;;16.60;9.50;;;2.10;40.20;;;;;;4970922;28;20452;-82
2022/03/02 05:43:16;;;;;;;19.83;11.53;;;2.00;40.30;;;;;;4981928;28;20460;-83
2022/03/02 05:45:43;;;;;;;23.13;14.00;;;2.10;39.80;;;;;;4982687;28;20481;-82
2022/03/02 05:48:09;;;;;;;18.93;11.40;;;2.10;39.50;;;;;;4980715;28;20465;-81
2022/03/02 05:50:36;;;;;;;21.63;9.33;;;2.10;40.70;;;;;;4982260;28;20458;-82
2022/03/02 05:53:03;;;;;;;21.67;11.20;;;2.00;42.10;;;;;;4981523;28;20964;-82
2022/03/02 05:55:30;;;;;;;17.00;10.07;;;2.00;40.50;;;;;;4980446;28;20483;-81
2022/03/02 05:57:56;;;;;;;15.27;8.07;;;2.00;40.10;;;;;;4980471;28;20478;-82
2022/03/02 06:00:25;;;;;;;19.27;11.18;;;2.00;40.20;;;;;;4979915;28;20478;-82
2022/03/02 06:02:51;;;;;;;19.83;10.17;;;2.00;40.90;;;;;;4979585;28;20196;-82
2022/03/02 06:05:18;;;;;;;16.93;11.20;;;2.00;41.40;;;;;;4980923;28;20458;-82
2022/03/02 06:07:45;;;;;;;20.33;9.50;;;1.90;41.40;;;;;;4981369;28;20808;-83
2022/03/02 06:10:13;;;;;;;15.83;10.07;;;2.00;41.10;;;;;;4981764;28;20455;-83
2022/03/02 06:12:40;;;;;;;23.10;9.60;;;2.00;42.60;;;;;;4981874;28;20530;-82
2022/03/02 06:15:28;;;;;;;17.27;10.03;;;2.00;42.20;;;;;;4982640;28;20462;-81
2022/03/02 06:18:06;;;;;;;17.17;10.00;;;1.90;43.00;;;;;;4982556;28;20509;-82
2022/03/02 06:24:08;;;;;;;24.45;10.63;;;1.80;43.20;;;;;;4885818;29;20454;-81
2022/03/02 06:27:00;;;;;;;16.83;8.97;;;1.80;43.60;;;;;;4981949;28;20269;-82
2022/03/02 06:29:27;;;;;;;28.20;11.90;;;1.80;43.40;;;;;;4983117;28;20471;-82
2022/03/02 06:32:05;;;;;;;16.80;11.00;;;2.00;43.10;;;;;;4983605;28;20457;-82
2022/03/02 06:34:33;;;;;;;16.83;10.63;;;1.90;43.30;;;;;;4982849;28;20526;-82
2022/03/02 06:37:13;;;;;;;20.87;10.40;;;2.00;44.00;;;;;;4982731;28;20991;-82
2022/03/02 06:42:30;;;;;;;14.43;9.60;;;1.80;44.50;;;;;;4943024;29;20452;-83
2022/03/02 06:45:17;;;;;;;24.00;11.37;;;1.90;44.10;;;;;;4944168;29;20193;-82
2022/03/02 07:14:47;;;;;;;17.50;10.67;;;2.50;41.30;;;;;;4885807;29;20450;-82
2022/03/02 07:21:21;;;;;;;24.27;10.43;;;2.80;41.20;;;;;;4899019;29;20203;-82
2022/03/02 07:24:35;;;;;;;;;;;;;;;;;;;;;
2022/03/02 07:46:12;;;;;;;18.93;11.40;;;3.30;41.60;;;;;;4826829;29;21038;-82
2022/03/02 07:51:44;;;;;;;17.27;10.00;;;3.40;42.20;;;;;;4896030;29;20454;-79
2022/03/02 07:54:17;;;;;;;20.13;10.30;;;3.50;40.10;;;;;;4908204;29;20534;-81
2022/03/02 07:57:14;;;;;;;20.07;10.60;;;3.50;39.30;;;;;;4930102;28;20558;-82
2022/03/02 07:59:48;;;;;;;19.40;10.70;;;3.50;40.70;;;;;;4964292;28;20879;-81
2022/03/02 08:02:26;;;;;;;26.40;11.83;;;3.60;42.20;;;;;;4963263;28;20443;-81
2022/03/02 08:04:55;;;;;;;19.47;10.90;;;3.60;41.30;;;;;;4964086;29;20456;-81
2022/03/02 08:07:30;;;;;;;20.43;12.03;;;3.70;43.10;;;;;;4963161;28;20487;-81
2022/03/02 08:10:01;;;;;;;17.60;10.27;;;3.70;43.80;;;;;;4962980;28;20455;-81
2022/03/02 08:12:35;;;;;;;18.27;11.20;;;3.90;44.40;;;;;;4963547;28;20788;-81
2022/03/02 08:15:03;;;;;;;22.03;13.40;;;4.00;42.50;;;;;;4962172;29;20463;-80
2022/03/02 08:17:32;;;;;;;19.03;11.23;;;4.10;39.70;;;;;;4964990;28;20479;-81
2022/03/02 08:19:59;;;;;;;21.70;12.30;;;4.10;39.70;;;;;;4968691;29;20463;-82
2022/03/02 08:22:29;;;;;;;17.67;11.07;;;4.20;39.80;;;;;;4967972;29;20463;-82
2022/03/02 08:25:10;;;;;;;17.13;10.00;;;4.30;39.90;;;;;;4962459;29;20471;-82
2022/03/02 08:27:39;;;;;;;17.33;9.73;;;4.40;38.60;;;;;;4964935;28;20491;-82
2022/03/02 08:30:45;;;;;;;24.03;11.20;;;4.50;36.30;;;;;;4964401;29;20547;-81
2022/03/02 08:33:37;;;;;;;17.27;10.00;;;4.60;34.20;;;;;;4946649;29;20449;-82
2022/03/02 08:36:10;;;;;;;15.97;10.30;;;4.70;32.50;;;;;;4967672;28;20531;-82
2022/03/02 08:38:57;;;;;;;19.83;11.10;;;4.70;34.20;;;;;;4965625;28;20471;-78
2022/03/02 08:41:35;;;;;;;16.80;11.17;;;4.90;35.80;;;;;;4969228;29;20458;-82
2022/03/02 08:44:14;;;;;;;17.20;10.13;;;5.10;33.70;;;;;;4967838;29;20455;-82
2022/03/02 08:46:59;;;;;;;17.37;10.83;;;5.10;34.30;;;;;;4966726;28;20483;-81
2022/03/02 08:49:48;;;;;;;16.37;10.73;;;5.30;31.50;;;;;;4966244;28;20456;-83
2022/03/02 08:52:22;;;;;;;20.57;12.53;;;5.30;32.10;;;;;;4965393;28;20452;-82
2022/03/02 08:54:55;;;;;;;20.97;12.53;;;5.40;32.00;;;;;;4966371;28;20448;-82
2022/03/02 08:57:32;;;;;;;16.60;11.07;;;5.50;30.80;;;;;;4965560;28;20566;-82
2022/03/02 09:00:02;;;;;;;17.23;10.82;;;5.60;30.20;;;;;;4965755;28;20491;-82
2022/03/02 09:02:35;;;;;;;19.53;11.90;;;5.70;29.70;;;;;;4966042;28;20646;-82
2022/03/02 09:05:06;;;;;;;17.93;10.93;;;5.70;29.30;;;;;;4966322;29;20592;-83
2022/03/02 09:07:34;;;;;;;16.43;11.27;;;5.90;28.80;;;;;;4966544;29;20447;-82
2022/03/02 09:10:10;;;;;;;15.30;11.53;;;6.00;28.60;;;;;;4966033;29;20458;-83
2022/03/02 09:12:55;;;;;;;16.87;11.03;;;6.10;29.00;;;;;;4967182;29;21052;-83
2022/03/02 09:15:26;;;;;;;19.30;12.50;;;6.30;28.10;;;;;;4966684;28;20470;-82
2022/03/02 09:18:19;;;;;;;15.67;11.07;;;6.60;27.90;;;;;;4966997;29;20460;-83
2022/03/02 09:20:58;;;;;;;23.13;12.03;;;7.10;25.80;;;;;;4967290;29;20982;-83
2022/03/02 09:23:34;;;;;;;18.00;10.20;;;7.70;26.20;;;;;;4967161;29;20554;-83
2022/03/02 09:26:10;;;;;;;16.43;11.13;;;8.20;23.50;;;;;;4967167;28;20526;-83
2022/03/02 09:28:47;;;;;;;20.43;11.60;;;8.80;21.30;;;;;;4967276;29;21036;-83
2022/03/02 09:31:20;;;;;;;16.77;11.70;;;9.30;18.90;;;;;;4966961;28;20485;-83
2022/03/02 09:33:58;;;;;;;18.50;11.40;;;9.60;17.50;;;;;;4967104;29;20488;-83
2022/03/02 09:36:39;;;;;;;19.87;10.90;;;10.10;14.60;;;;;;4967944;28;20475;-83
2022/03/02 09:39:12;;;;;;;16.40;11.23;;;10.60;12.90;;;;;;4966979;28;20503;-83
2022/03/02 09:41:49;;;;;;;18.50;10.87;;;10.90;13.20;;;;;;4967383;29;20456;-83
2022/03/02 09:44:21;;;;;;;14.60;11.30;;;10.90;9.80;;;;;;4968338;29;20555;-83
2022/03/02 09:46:51;;;;;;;16.03;10.53;;;10.80;7.50;;;;;;4967933;28;20556;-84
2022/03/02 09:49:23;;;;;;;16.37;10.07;;;11.10;5.80;;;;;;4968161;29;20448;-83
2022/03/02 09:52:06;;;;;;;15.10;10.03;;;11.50;6.10;;;;;;4968287;28;20463;-83
2022/03/02 09:54:43;;;;;;;14.57;9.70;;;11.70;4.30;;;;;;4967002;29;20514;-83
2022/03/02 09:57:10;;;;;;;18.87;10.17;;;11.90;4.20;;;;;;4981531;23;20546;-82
2022/03/02 09:59:39;;;;;;;16.00;9.50;;;12.40;1.80;;;;;;4955582;29;20484;-82
2022/03/02 10:02:07;;;;;;;15.40;11.10;;;12.90;1.00;;;;;;4956462;29;20468;-82
2022/03/02 10:04:36;;;;;;;12.43;9.30;;;13.10;1.00;;;;;;4956712;29;20460;-82
2022/03/02 10:07:28;;;;;;;16.27;8.90;;;12.80;1.00;;;;;;4956737;28;20486;-82
2022/03/02 10:10:03;;;;;;;16.00;10.27;;;13.20;1.00;;;;;;4956160;29;20969;-82
2022/03/02 10:12:31;;;;;;;18.33;9.00;;;13.30;1.00;;;;;;4956225;29;20915;-82
2022/03/02 10:14:58;;;;;;;12.23;9.30;;;13.40;1.00;;;;;;4955849;29;20486;-83
2022/03/02 10:17:32;;;;;;;15.10;9.20;;;13.80;1.00;;;;;;4957854;28;21073;-84
2022/03/02 10:20:04;;;;;;;11.80;8.97;;;14.10;1.00;;;;;;4962385;29;20541;-83
2022/03/02 10:23:05;;;;;;;13.70;9.37;;;13.60;1.00;;;;;;4960869;28;20459;-86
2022/03/02 10:26:00;;;;;;;13.33;9.00;;;13.70;1.00;;;;;;4940948;29;20448;-83
2022/03/02 10:28:28;;;;;;;13.67;10.20;;;13.80;1.00;;;;;;4941769;29;20545;-84
2022/03/02 10:31:19;;;;;;;14.80;9.93;;;14.40;1.00;;;;;;4941383;29;20457;-82
2022/03/02 10:33:48;;;;;;;13.60;9.17;;;14.40;1.00;;;;;;4958775;29;20837;-84
2022/03/02 10:36:16;;;;;;;13.30;9.43;;;14.30;1.00;;;;;;4960027;28;20472;-84
2022/03/02 10:38:51;;;;;;;12.90;9.93;;;14.50;1.00;;;;;;4958182;28;20987;-84
2022/03/02 10:41:21;;;;;;;16.03;10.33;;;14.90;1.00;;;;;;4960871;29;20464;-83
2022/03/02 10:43:57;;;;;;;13.00;9.07;;;14.30;1.00;;;;;;4959238;29;20457;-85
2022/03/02 10:46:26;;;;;;;13.73;8.80;;;14.20;1.00;;;;;;4959147;29;20477;-86
2022/03/02 10:49:04;;;;;;;13.77;8.97;;;14.20;1.00;;;;;;4957450;29;20492;-84
2022/03/02 10:51:32;;;;;;;11.83;8.40;;;14.50;1.00;;;;;;4959323;29;20471;-86
2022/03/02 10:54:03;;;;;;;12.47;8.80;;;14.50;1.00;;;;;;4957036;29;20454;-85
2022/03/02 10:56:30;;;;;;;12.47;9.20;;;14.90;1.00;;;;;;4958128;29;20493;-86
2022/03/02 10:59:00;;;;;;;17.00;10.20;;;15.00;1.00;;;;;;4959759;29;20449;-87
2022/03/02 11:01:27;;;;;;;16.67;10.25;;;15.00;1.00;;;;;;4959908;28;20832;-85
2022/03/02 11:03:54;;;;;;;13.23;9.00;;;15.50;1.00;;;;;;4958937;29;20210;-86
2022/03/02 11:06:23;;;;;;;12.20;8.10;;;15.40;1.00;;;;;;4960329;28;20485;-86
2022/03/02 11:08:50;;;;;;;13.43;9.60;;;14.90;1.00;;;;;;4959260;29;20488;-85
2022/03/02 11:11:19;;;;;;;12.37;9.20;;;14.40;1.00;;;;;;4960305;29;20518;-84
2022/03/02 11:13:47;;;;;;;12.50;7.70;;;14.70;1.00;;;;;;4960453;29;20453;-84
2022/03/02 11:16:21;;;;;;;10.77;7.57;;;15.00;1.00;;;;;;4958708;29;20475;-83
2022/03/02 11:18:51;;;;;;;12.23;8.80;;;15.40;1.00;;;;;;4959351;29;20458;-84
2022/03/02 11:21:21;;;;;;;13.93;8.30;;;15.90;1.00;;;;;;4957385;29;20459;-83
2022/03/02 11:23:50;;;;;;;11.70;8.87;;;16.00;1.00;;;;;;4955540;29;20465;-84
2022/03/02 11:26:23;;;;;;;12.60;8.37;;;16.50;1.00;;;;;;4958273;29;20507;-84
2022/03/02 11:28:53;;;;;;;13.50;8.83;;;17.00;1.00;;;;;;4957619;29;20511;-83
2022/03/02 11:31:24;;;;;;;11.37;7.97;;;17.30;1.00;;;;;;4957709;29;20461;-83
2022/03/02 11:33:52;;;;;;;12.87;9.90;;;17.00;1.00;;;;;;4956840;29;20458;-83
2022/03/02 11:36:20;;;;;;;13.30;8.53;;;16.40;1.00;;;;;;4958116;28;20489;-82
2022/03/02 11:38:50;;;;;;;14.53;8.87;;;16.60;1.00;;;;;;4955642;29;20453;-82
2022/03/02 11:41:19;;;;;;;11.73;8.50;;;17.40;1.00;;;;;;4957589;29;20510;-83
2022/03/02 11:43:46;;;;;;;11.63;7.93;;;17.70;1.00;;;;;;4957960;29;20464;-83
2022/03/02 11:46:13;;;;;;;14.20;9.00;;;17.70;1.00;;;;;;4957055;29;20969;-85
2022/03/02 11:48:42;;;;;;;16.13;10.33;;;17.70;1.00;;;;;;4957795;29;20847;-83
2022/03/02 11:51:14;;;;;;;12.53;9.40;;;18.00;1.00;;;;;;4956774;29;20462;-83
2022/03/02 11:53:44;;;;;;;10.77;8.37;;;18.00;1.00;;;;;;4957920;28;20526;-84
2022/03/02 11:56:13;;;;;;;13.53;9.57;;;17.80;1.00;;;;;;4957377;28;20491;-86
2022/03/02 11:59:03;;;;;;;14.80;8.83;;;18.00;1.00;;;;;;4959271;29;20901;-86
2022/03/02 12:01:43;;;;;;;11.23;8.77;;;17.10;1.00;;;;;;4958000;29;20462;-84
2022/03/02 12:04:14;;;;;;;13.77;9.80;;;18.10;1.00;;;;;;4956193;29;20458;-86
2022/03/02 12:06:44;;;;;;;13.80;9.10;;;18.40;1.00;;;;;;4956787;29;20479;-84
2022/03/02 12:09:22;;;;;;;12.50;9.37;;;17.60;1.00;;;;;;4957010;28;20581;-84
2022/03/02 12:11:49;;;;;;;12.43;8.10;;;17.10;1.00;;;;;;4956141;29;20462;-83
2022/03/02 12:14:17;;;;;;;98.37;50.13;;;17.40;1.00;;;;;;4955819;29;20455;-83
2022/03/02 12:16:46;;;;;;;12.40;9.30;;;17.80;1.00;;;;;;4955054;29;20480;-84
2022/03/02 12:19:25;;;;;;;12.27;8.70;;;18.30;1.00;;;;;;4956027;29;20546;-83
2022/03/02 12:21:54;;;;;;;12.07;8.50;;;17.90;1.00;;;;;;4954682;29;20494;-83
2022/03/02 12:24:29;;;;;;;14.73;8.63;;;18.40;1.00;;;;;;4941304;29;20450;-84
2022/03/02 12:27:04;;;;;;;13.43;9.63;;;18.70;1.00;;;;;;4953306;29;20493;-84
2022/03/02 12:29:32;;;;;;;16.40;10.13;;;18.90;1.00;;;;;;4954028;29;20485;-83
2022/03/02 12:32:12;;;;;;;11.90;9.00;;;18.80;1.00;;;;;;4954917;29;20517;-83
2022/03/02 12:34:41;;;;;;;12.33;9.10;;;19.70;1.00;;;;;;4954349;29;20819;-83
2022/03/02 12:37:10;;;;;;;11.67;9.07;;;19.80;1.00;;;;;;4956122;29;21004;-83
2022/03/02 12:39:37;;;;;;;14.07;9.10;;;20.10;1.00;;;;;;4955870;29;20445;-83
2022/03/02 12:42:07;;;;;;;13.17;9.17;;;19.90;1.00;;;;;;4955604;29;20994;-86
2022/03/02 12:44:37;;;;;;;13.13;9.30;;;19.30;1.00;;;;;;4956900;29;20947;-84
2022/03/02 12:47:06;;;;;;;14.80;9.40;;;20.20;1.00;;;;;;4954645;29;20557;-83
2022/03/02 12:49:35;;;;;;;12.40;8.83;;;19.90;1.00;;;;;;4942831;29;20472;-83
2022/03/02 12:52:03;;;;;;;12.47;9.40;;;20.50;1.00;;;;;;4954462;29;20463;-83
2022/03/02 12:54:32;;;;;;;13.50;8.67;;;20.40;1.00;;;;;;4952689;29;20457;-83
2022/03/02 12:57:00;;;;;;;11.60;9.00;;;20.20;1.00;;;;;;4955493;29;20564;-84
2022/03/02 12:59:28;;;;;;;10.27;8.57;;;19.90;1.00;;;;;;4955667;29;20451;-84
2022/03/02 13:01:56;;;;;;;11.80;8.30;;;19.20;1.00;;;;;;4954603;29;20457;-84
2022/03/02 13:04:29;;;;;;;11.50;8.80;;;20.20;1.00;;;;;;4955629;28;20459;-84
2022/03/02 13:07:04;;;;;;;11.90;9.00;;;20.30;1.00;;;;;;4955310;29;20475;-82
2022/03/02 13:09:35;;;;;;;12.60;8.57;;;19.90;1.00;;;;;;4955317;29;20477;-84
2022/03/02 13:12:30;;;;;;;13.47;8.80;;;20.40;1.00;;;;;;4954855;29;20490;-82
2022/03/02 13:14:57;;;;;;;13.10;9.03;;;20.40;1.00;;;;;;4951470;29;20834;-84
2022/03/02 13:17:26;;;;;;;12.10;9.70;;;20.00;1.00;;;;;;4953923;28;20480;-83
2022/03/02 13:19:55;;;;;;;12.33;9.10;;;20.80;1.00;;;;;;4952704;29;20458;-83
2022/03/02 13:22:33;;;;;;;11.80;9.00;;;21.00;1.00;;;;;;4953621;29;20445;-83
2022/03/02 13:25:05;;;;;;;14.00;9.33;;;21.20;1.00;;;;;;4954557;28;20459;-83
2022/03/02 13:27:32;;;;;;;14.33;8.90;;;21.30;1.00;;;;;;4956115;29;21063;-83
2022/03/02 13:30:08;;;;;;;16.33;9.37;;;21.50;1.00;;;;;;4955666;29;20667;-84
2022/03/02 13:33:10;;;;;;;11.63;8.00;;;20.60;1.00;;;;;;4956783;29;20946;-84
2022/03/02 13:35:52;;;;;;;13.50;9.13;;;19.80;1.00;;;;;;4956911;29;20841;-84
2022/03/02 13:38:19;;;;;;;11.93;9.20;;;19.40;1.00;;;;;;4957412;29;20454;-84
2022/03/02 13:40:49;;;;;;;12.47;8.23;;;19.30;1.00;;;;;;4958941;29;20830;-84
2022/03/02 13:43:37;;;;;;;13.40;8.93;;;18.60;1.00;;;;;;4959021;29;20839;-84
2022/03/02 13:46:23;;;;;;;10.80;7.97;;;17.90;1.00;;;;;;4958492;29;20473;-84
2022/03/02 13:48:56;;;;;;;11.70;8.70;;;17.00;1.00;;;;;;4958830;29;20461;-84
2022/03/02 13:51:24;;;;;;;13.00;9.80;;;16.00;1.00;;;;;;4959119;29;20673;-85
2022/03/02 13:54:03;;;;;;;11.80;8.77;;;15.40;1.00;;;;;;4959458;28;20465;-84
2022/03/02 13:56:34;;;;;;;11.80;8.50;;;14.60;1.00;;;;;;4959205;28;20492;-85
2022/03/02 13:59:02;;;;;;;13.53;8.80;;;14.40;1.00;;;;;;4959208;29;20488;-83
2022/03/02 14:01:32;;;;;;;15.47;7.67;;;14.30;1.00;;;;;;4958662;29;20463;-84
2022/03/02 14:04:05;;;;;;;13.10;8.37;;;14.00;1.00;;;;;;4959369;29;20459;-84